sensor_id;sensor_type;location;lat;lon;timestamp;P1;durP1;ratioP1;P2;durP2;ratioP2
21905;SDS011;11117;48.644;9.006;2023-04-02T00:01:33;1.90;;;0.90;;
21905;SDS011;11117;48.644;9.006;2023-04-02T00:04:05;1.77;;;1.10;;
21905;SDS011;11117;48.644;9.006;2023-04-02T00:06:36;0.70;;;0.70;;
21905;SDS011;11117;48.644;9.006;2023-04-02T00:09:16;0.67;;;0.67;;
21905;SDS011;11117;48.644;9.006;2023-04-02T00:11:47;0.60;;;0.60;;
21905;SDS011;11117;48.644;9.006;2023-04-02T00:14:36;1.77;;;0.70;;
21905;SDS011;11117;48.644;9.006;2023-04-02T00:17:02;2.10;;;0.50;;
21905;SDS011;11117;48.644;9.006;2023-04-02T00:19:32;1.80;;;0.50;;
21905;SDS011;11117;48.644;9.006;2023-04-02T00:22:03;1.23;;;0.50;;
21905;SDS011;11117;48.644;9.006;2023-04-02T00:24:31;1.00;;;0.60;;
21905;SDS011;11117;48.644;9.006;2023-04-02T00:26:58;0.97;;;0.50;;
21905;SDS011;11117;48.644;9.006;2023-04-02T00:29:25;0.50;;;0.50;;
21905;SDS011;11117;48.644;9.006;2023-04-02T00:31:51;3.47;;;0.60;;
21905;SDS011;11117;48.644;9.006;2023-04-02T00:34:22;0.70;;;0.50;;
21905;SDS011;11117;48.644;9.006;2023-04-02T00:37:00;1.07;;;0.30;;
21905;SDS011;11117;48.644;9.006;2023-04-02T00:39:28;0.50;;;0.50;;
21905;SDS011;11117;48.644;9.006;2023-04-02T00:41:57;0.93;;;0.40;;
21905;SDS011;11117;48.644;9.006;2023-04-02T00:44:23;0.87;;;0.50;;
21905;SDS011;11117;48.644;9.006;2023-04-02T00:46:54;1.50;;;0.50;;
21905;SDS011;11117;48.644;9.006;2023-04-02T00:49:21;0.50;;;0.40;;
21905;SDS011;11117;48.644;9.006;2023-04-02T00:52:03;1.53;;;0.50;;
21905;SDS011;11117;48.644;9.006;2023-04-02T00:54:33;1.60;;;0.50;;
21905;SDS011;11117;48.644;9.006;2023-04-02T00:57:19;0.97;;;0.50;;
21905;SDS011;11117;48.644;9.006;2023-04-02T01:00:12;1.27;;;0.40;;
21905;SDS011;11117;48.644;9.006;2023-04-02T01:02:39;0.50;;;0.50;;
21905;SDS011;11117;48.644;9.006;2023-04-02T01:16:22;0.80;;;0.50;;
21905;SDS011;11117;48.644;9.006;2023-04-02T01:21:52;0.73;;;0.50;;
21905;SDS011;11117;48.644;9.006;2023-04-02T01:24:37;0.40;;;0.40;;
21905;SDS011;11117;48.644;9.006;2023-04-02T01:27:11;1.03;;;0.40;;
21905;SDS011;11117;48.644;9.006;2023-04-02T01:30:03;0.90;;;0.50;;
21905;SDS011;11117;48.644;9.006;2023-04-02T01:32:28;0.50;;;0.40;;
21905;SDS011;11117;48.644;9.006;2023-04-02T01:34:55;2.00;;;0.60;;
21905;SDS011;11117;48.644;9.006;2023-04-02T01:45:31;2.23;;;0.40;;
21905;SDS011;11117;48.644;9.006;2023-04-02T01:47:57;1.30;;;0.70;;
21905;SDS011;11117;48.644;9.006;2023-04-02T01:50:25;1.87;;;1.07;;
21905;SDS011;11117;48.644;9.006;2023-04-02T01:53:02;0.47;;;0.40;;
21905;SDS011;11117;48.644;9.006;2023-04-02T01:58:05;1.80;;;0.80;;
21905;SDS011;11117;48.644;9.006;2023-04-02T02:00:33;0.60;;;0.60;;
21905;SDS011;11117;48.644;9.006;2023-04-02T02:03:00;1.57;;;0.80;;
21905;SDS011;11117;48.644;9.006;2023-04-02T02:05:26;3.23;;;1.07;;
21905;SDS011;11117;48.644;9.006;2023-04-02T02:07:53;3.83;;;0.93;;
21905;SDS011;11117;48.644;9.006;2023-04-02T02:10:25;3.87;;;1.20;;
21905;SDS011;11117;48.644;9.006;2023-04-02T02:12:52;4.63;;;1.20;;
21905;SDS011;11117;48.644;9.006;2023-04-02T02:15:19;3.27;;;1.00;;
21905;SDS011;11117;48.644;9.006;2023-04-02T02:17:47;1.30;;;1.10;;
21905;SDS011;11117;48.644;9.006;2023-04-02T02:20:14;3.20;;;1.40;;
21905;SDS011;11117;48.644;9.006;2023-04-02T02:22:43;3.23;;;1.10;;
21905;SDS011;11117;48.644;9.006;2023-04-02T02:25:15;1.77;;;1.20;;
21905;SDS011;11117;48.644;9.006;2023-04-02T02:27:46;3.90;;;1.30;;
21905;SDS011;11117;48.644;9.006;2023-04-02T02:30:14;2.73;;;1.20;;
21905;SDS011;11117;48.644;9.006;2023-04-02T02:35:36;3.93;;;1.40;;
21905;SDS011;11117;48.644;9.006;2023-04-02T02:40:57;3.77;;;1.30;;
21905;SDS011;11117;48.644;9.006;2023-04-02T02:43:51;3.03;;;1.43;;
21905;SDS011;11117;48.644;9.006;2023-04-02T02:46:33;2.13;;;1.30;;
21905;SDS011;11117;48.644;9.006;2023-04-02T02:49:03;3.23;;;1.33;;
21905;SDS011;11117;48.644;9.006;2023-04-02T02:51:46;3.43;;;1.40;;
21905;SDS011;11117;48.644;9.006;2023-04-02T02:54:23;4.13;;;1.70;;
21905;SDS011;11117;48.644;9.006;2023-04-02T02:56:53;3.27;;;1.37;;
21905;SDS011;11117;48.644;9.006;2023-04-02T02:59:23;3.00;;;1.40;;
21905;SDS011;11117;48.644;9.006;2023-04-02T03:01:49;2.03;;;1.30;;
21905;SDS011;11117;48.644;9.006;2023-04-02T03:04:20;3.27;;;1.80;;
21905;SDS011;11117;48.644;9.006;2023-04-02T03:06:48;2.47;;;1.30;;
21905;SDS011;11117;48.644;9.006;2023-04-02T03:09:27;2.63;;;1.50;;
21905;SDS011;11117;48.644;9.006;2023-04-02T03:14:59;1.87;;;1.23;;
21905;SDS011;11117;48.644;9.006;2023-04-02T03:17:47;2.17;;;1.27;;
21905;SDS011;11117;48.644;9.006;2023-04-02T03:22:59;2.13;;;1.30;;
21905;SDS011;11117;48.644;9.006;2023-04-02T03:28:06;2.53;;;1.60;;
21905;SDS011;11117;48.644;9.006;2023-04-02T03:33:18;1.70;;;1.27;;
21905;SDS011;11117;48.644;9.006;2023-04-02T03:35:52;5.23;;;1.20;;
21905;SDS011;11117;48.644;9.006;2023-04-02T03:38:22;1.80;;;1.20;;
21905;SDS011;11117;48.644;9.006;2023-04-02T03:43:35;2.87;;;1.20;;
21905;SDS011;11117;48.644;9.006;2023-04-02T03:49:02;2.57;;;1.13;;
21905;SDS011;11117;48.644;9.006;2023-04-02T03:51:33;2.13;;;1.33;;
21905;SDS011;11117;48.644;9.006;2023-04-02T03:54:00;1.93;;;1.40;;
21905;SDS011;11117;48.644;9.006;2023-04-02T03:56:28;3.07;;;1.60;;
21905;SDS011;11117;48.644;9.006;2023-04-02T03:59:31;3.30;;;1.80;;
21905;SDS011;11117;48.644;9.006;2023-04-02T04:02:11;3.67;;;1.60;;
21905;SDS011;11117;48.644;9.006;2023-04-02T04:04:50;3.47;;;1.67;;
21905;SDS011;11117;48.644;9.006;2023-04-02T04:07:20;2.93;;;1.50;;
21905;SDS011;11117;48.644;9.006;2023-04-02T04:10:04;4.27;;;1.60;;
21905;SDS011;11117;48.644;9.006;2023-04-02T04:12:33;3.23;;;1.60;;
21905;SDS011;11117;48.644;9.006;2023-04-02T04:15:28;4.57;;;1.57;;
21905;SDS011;11117;48.644;9.006;2023-04-02T04:18:08;2.07;;;1.50;;
21905;SDS011;11117;48.644;9.006;2023-04-02T04:20:59;4.23;;;1.70;;
21905;SDS011;11117;48.644;9.006;2023-04-02T04:23:29;2.47;;;1.70;;
21905;SDS011;11117;48.644;9.006;2023-04-02T04:26:04;4.47;;;2.00;;
21905;SDS011;11117;48.644;9.006;2023-04-02T04:29:12;2.57;;;1.60;;
21905;SDS011;11117;48.644;9.006;2023-04-02T04:32:09;5.57;;;1.67;;
21905;SDS011;11117;48.644;9.006;2023-04-02T04:34:46;7.17;;;1.70;;
21905;SDS011;11117;48.644;9.006;2023-04-02T04:37:17;2.60;;;1.73;;
21905;SDS011;11117;48.644;9.006;2023-04-02T04:39:49;5.07;;;2.00;;
21905;SDS011;11117;48.644;9.006;2023-04-02T04:42:25;2.77;;;1.70;;
21905;SDS011;11117;48.644;9.006;2023-04-02T04:47:31;3.73;;;2.03;;
21905;SDS011;11117;48.644;9.006;2023-04-02T04:50:06;8.83;;;3.40;;
21905;SDS011;11117;48.644;9.006;2023-04-02T04:52:38;8.13;;;4.60;;
21905;SDS011;11117;48.644;9.006;2023-04-02T04:56:05;17.80;;;9.87;;
21905;SDS011;11117;48.644;9.006;2023-04-02T04:58:03;32.77;;;15.37;;
21905;SDS011;11117;48.644;9.006;2023-04-02T05:05:58;54.23;;;20.80;;
21905;SDS011;11117;48.644;9.006;2023-04-02T05:08:31;49.10;;;22.60;;
21905;SDS011;11117;48.644;9.006;2023-04-02T05:11:00;37.20;;;18.30;;
21905;SDS011;11117;48.644;9.006;2023-04-02T05:13:35;8.73;;;5.77;;
21905;SDS011;11117;48.644;9.006;2023-04-02T05:16:17;7.17;;;4.90;;
21905;SDS011;11117;48.644;9.006;2023-04-02T05:18:51;5.60;;;4.00;;
21905;SDS011;11117;48.644;9.006;2023-04-02T05:21:36;5.23;;;3.50;;
21905;SDS011;11117;48.644;9.006;2023-04-02T05:24:20;8.50;;;3.10;;
21905;SDS011;11117;48.644;9.006;2023-04-02T05:27:00;3.57;;;2.23;;
21905;SDS011;11117;48.644;9.006;2023-04-02T05:29:46;5.00;;;2.30;;
21905;SDS011;11117;48.644;9.006;2023-04-02T05:32:22;5.33;;;2.30;;
21905;SDS011;11117;48.644;9.006;2023-04-02T05:34:53;4.50;;;2.90;;
21905;SDS011;11117;48.644;9.006;2023-04-02T05:37:20;2.70;;;2.00;;
21905;SDS011;11117;48.644;9.006;2023-04-02T05:39:55;4.83;;;2.53;;
21905;SDS011;11117;48.644;9.006;2023-04-02T05:42:23;10.87;;;5.60;;
21905;SDS011;11117;48.644;9.006;2023-04-02T05:47:29;5.70;;;3.17;;
21905;SDS011;11117;48.644;9.006;2023-04-02T05:52:29;6.63;;;2.70;;
21905;SDS011;11117;48.644;9.006;2023-04-02T05:55:23;4.87;;;2.20;;
21905;SDS011;11117;48.644;9.006;2023-04-02T05:58:00;3.60;;;1.83;;
21905;SDS011;11117;48.644;9.006;2023-04-02T06:03:20;4.17;;;1.70;;
21905;SDS011;11117;48.644;9.006;2023-04-02T06:05:54;3.90;;;1.80;;
21905;SDS011;11117;48.644;9.006;2023-04-02T06:08:32;4.60;;;2.40;;
21905;SDS011;11117;48.644;9.006;2023-04-02T06:11:06;6.47;;;2.50;;
21905;SDS011;11117;48.644;9.006;2023-04-02T06:13:42;3.53;;;2.27;;
21905;SDS011;11117;48.644;9.006;2023-04-02T06:16:09;8.27;;;3.50;;
21905;SDS011;11117;48.644;9.006;2023-04-02T06:18:38;5.77;;;2.50;;
21905;SDS011;11117;48.644;9.006;2023-04-02T06:21:05;5.13;;;2.13;;
21905;SDS011;11117;48.644;9.006;2023-04-02T06:29:05;1.80;;;1.37;;
21905;SDS011;11117;48.644;9.006;2023-04-02T06:31:54;4.57;;;1.90;;
21905;SDS011;11117;48.644;9.006;2023-04-02T06:34:20;16.10;;;2.37;;
21905;SDS011;11117;48.644;9.006;2023-04-02T06:36:48;179.90;;;8.00;;
21905;SDS011;11117;48.644;9.006;2023-04-02T06:39:19;6.40;;;1.80;;
21905;SDS011;11117;48.644;9.006;2023-04-02T06:41:50;3.03;;;1.40;;
21905;SDS011;11117;48.644;9.006;2023-04-02T06:44:20;2.77;;;1.43;;
21905;SDS011;11117;48.644;9.006;2023-04-02T06:46:49;2.50;;;1.17;;
21905;SDS011;11117;48.644;9.006;2023-04-02T06:49:41;2.40;;;1.40;;
21905;SDS011;11117;48.644;9.006;2023-04-02T06:53:03;1.90;;;1.53;;
21905;SDS011;11117;48.644;9.006;2023-04-02T06:55:22;2.30;;;1.20;;
21905;SDS011;11117;48.644;9.006;2023-04-02T06:57:50;3.93;;;1.40;;
21905;SDS011;11117;48.644;9.006;2023-04-02T07:00:37;4.80;;;1.87;;
21905;SDS011;11117;48.644;9.006;2023-04-02T07:03:12;4.43;;;1.53;;
21905;SDS011;11117;48.644;9.006;2023-04-02T07:05:39;2.53;;;1.67;;
21905;SDS011;11117;48.644;9.006;2023-04-02T07:08:05;20.63;;;2.27;;
21905;SDS011;11117;48.644;9.006;2023-04-02T07:10:30;191.17;;;10.27;;
21905;SDS011;11117;48.644;9.006;2023-04-02T07:12:56;63.50;;;3.80;;
21905;SDS011;11117;48.644;9.006;2023-04-02T07:15:21;47.33;;;2.83;;
21905;SDS011;11117;48.644;9.006;2023-04-02T07:17:47;3.20;;;1.40;;
21905;SDS011;11117;48.644;9.006;2023-04-02T07:22:58;1.77;;;1.00;;
21905;SDS011;11117;48.644;9.006;2023-04-02T07:25:24;2.73;;;1.30;;
21905;SDS011;11117;48.644;9.006;2023-04-02T07:27:51;2.67;;;1.30;;
21905;SDS011;11117;48.644;9.006;2023-04-02T07:30:17;1.93;;;1.47;;
21905;SDS011;11117;48.644;9.006;2023-04-02T07:32:43;3.00;;;1.40;;
21905;SDS011;11117;48.644;9.006;2023-04-02T07:35:09;2.57;;;1.33;;
21905;SDS011;11117;48.644;9.006;2023-04-02T07:37:35;3.03;;;1.20;;
21905;SDS011;11117;48.644;9.006;2023-04-02T07:40:02;3.30;;;1.00;;
21905;SDS011;11117;48.644;9.006;2023-04-02T07:42:28;2.73;;;1.40;;
21905;SDS011;11117;48.644;9.006;2023-04-02T07:44:54;2.33;;;1.37;;
21905;SDS011;11117;48.644;9.006;2023-04-02T07:47:19;3.67;;;1.57;;
21905;SDS011;11117;48.644;9.006;2023-04-02T07:49:45;3.13;;;1.17;;
21905;SDS011;11117;48.644;9.006;2023-04-02T07:52:10;3.50;;;1.43;;
21905;SDS011;11117;48.644;9.006;2023-04-02T07:54:36;3.53;;;1.30;;
21905;SDS011;11117;48.644;9.006;2023-04-02T07:57:01;6.70;;;1.40;;
21905;SDS011;11117;48.644;9.006;2023-04-02T07:59:27;2.70;;;1.30;;
21905;SDS011;11117;48.644;9.006;2023-04-02T08:01:53;3.50;;;1.23;;
21905;SDS011;11117;48.644;9.006;2023-04-02T08:04:28;3.03;;;1.30;;
21905;SDS011;11117;48.644;9.006;2023-04-02T08:06:55;3.80;;;1.37;;
21905;SDS011;11117;48.644;9.006;2023-04-02T08:09:20;2.60;;;1.33;;
21905;SDS011;11117;48.644;9.006;2023-04-02T08:11:46;1.57;;;1.00;;
21905;SDS011;11117;48.644;9.006;2023-04-02T08:14:11;3.43;;;1.20;;
21905;SDS011;11117;48.644;9.006;2023-04-02T08:16:47;5.97;;;1.00;;
21905;SDS011;11117;48.644;9.006;2023-04-02T08:22:10;4.37;;;1.50;;
21905;SDS011;11117;48.644;9.006;2023-04-02T08:24:41;1.27;;;1.10;;
21905;SDS011;11117;48.644;9.006;2023-04-02T08:27:12;2.90;;;1.00;;
21905;SDS011;11117;48.644;9.006;2023-04-02T08:30:05;2.13;;;1.07;;
21905;SDS011;11117;48.644;9.006;2023-04-02T08:32:34;1.40;;;0.90;;
21905;SDS011;11117;48.644;9.006;2023-04-02T08:35:12;2.60;;;1.20;;
21905;SDS011;11117;48.644;9.006;2023-04-02T08:37:46;2.30;;;1.20;;
21905;SDS011;11117;48.644;9.006;2023-04-02T08:40:37;2.20;;;1.00;;
21905;SDS011;11117;48.644;9.006;2023-04-02T08:46:13;3.80;;;1.20;;
21905;SDS011;11117;48.644;9.006;2023-04-02T08:48:54;1.53;;;0.93;;
21905;SDS011;11117;48.644;9.006;2023-04-02T08:51:42;1.13;;;0.90;;
21905;SDS011;11117;48.644;9.006;2023-04-02T08:54:28;1.30;;;0.97;;
21905;SDS011;11117;48.644;9.006;2023-04-02T08:57:14;1.23;;;0.77;;
21905;SDS011;11117;48.644;9.006;2023-04-02T08:59:58;1.10;;;0.70;;
21905;SDS011;11117;48.644;9.006;2023-04-02T09:02:38;2.63;;;0.87;;
21905;SDS011;11117;48.644;9.006;2023-04-02T09:05:06;1.10;;;0.80;;
21905;SDS011;11117;48.644;9.006;2023-04-02T09:07:41;1.50;;;0.83;;
21905;SDS011;11117;48.644;9.006;2023-04-02T09:10:12;1.97;;;0.90;;
21905;SDS011;11117;48.644;9.006;2023-04-02T09:12:43;0.60;;;0.60;;
21905;SDS011;11117;48.644;9.006;2023-04-02T09:15:27;0.70;;;0.70;;
21905;SDS011;11117;48.644;9.006;2023-04-02T09:17:59;1.20;;;0.80;;
21905;SDS011;11117;48.644;9.006;2023-04-02T09:20:33;0.90;;;0.60;;
21905;SDS011;11117;48.644;9.006;2023-04-02T09:22:59;0.60;;;0.60;;
21905;SDS011;11117;48.644;9.006;2023-04-02T09:25:26;1.33;;;0.70;;
21905;SDS011;11117;48.644;9.006;2023-04-02T09:27:55;1.00;;;0.70;;
21905;SDS011;11117;48.644;9.006;2023-04-02T09:32:54;0.53;;;0.53;;
21905;SDS011;11117;48.644;9.006;2023-04-02T09:35:25;1.40;;;0.70;;
21905;SDS011;11117;48.644;9.006;2023-04-02T09:43:22;1.03;;;0.70;;
21905;SDS011;11117;48.644;9.006;2023-04-02T09:48:43;0.97;;;0.70;;
21905;SDS011;11117;48.644;9.006;2023-04-02T09:51:46;1.20;;;0.70;;
21905;SDS011;11117;48.644;9.006;2023-04-02T09:54:14;1.50;;;0.60;;
21905;SDS011;11117;48.644;9.006;2023-04-02T09:57:00;0.80;;;0.60;;
21905;SDS011;11117;48.644;9.006;2023-04-02T09:59:27;0.80;;;0.60;;
21905;SDS011;11117;48.644;9.006;2023-04-02T10:04:30;0.97;;;0.60;;
21905;SDS011;11117;48.644;9.006;2023-04-02T10:07:01;2.30;;;1.10;;
21905;SDS011;11117;48.644;9.006;2023-04-02T10:09:28;1.40;;;0.60;;
21905;SDS011;11117;48.644;9.006;2023-04-02T10:11:57;1.87;;;0.80;;
21905;SDS011;11117;48.644;9.006;2023-04-02T10:14:29;0.80;;;0.50;;
21905;SDS011;11117;48.644;9.006;2023-04-02T10:17:11;0.80;;;0.53;;
21905;SDS011;11117;48.644;9.006;2023-04-02T10:19:56;0.83;;;0.43;;
21905;SDS011;11117;48.644;9.006;2023-04-02T10:22:28;1.33;;;0.40;;
21905;SDS011;11117;48.644;9.006;2023-04-02T10:24:54;1.47;;;0.60;;
21905;SDS011;11117;48.644;9.006;2023-04-02T10:36:04;1.40;;;0.50;;
21905;SDS011;11117;48.644;9.006;2023-04-02T10:38:41;2.23;;;0.47;;
21905;SDS011;11117;48.644;9.006;2023-04-02T10:47:24;0.67;;;0.50;;
21905;SDS011;11117;48.644;9.006;2023-04-02T10:50:30;0.87;;;0.40;;
21905;SDS011;11117;48.644;9.006;2023-04-02T10:56:30;3.03;;;0.80;;
21905;SDS011;11117;48.644;9.006;2023-04-02T11:02:20;0.70;;;0.40;;
21905;SDS011;11117;48.644;9.006;2023-04-02T11:05:11;0.70;;;0.57;;
21905;SDS011;11117;48.644;9.006;2023-04-02T11:11:26;0.50;;;0.47;;
21905;SDS011;11117;48.644;9.006;2023-04-02T11:16:59;0.60;;;0.53;;
21905;SDS011;11117;48.644;9.006;2023-04-02T11:19:37;0.60;;;0.53;;
21905;SDS011;11117;48.644;9.006;2023-04-02T11:22:10;0.50;;;0.50;;
21905;SDS011;11117;48.644;9.006;2023-04-02T11:24:54;1.83;;;0.70;;
21905;SDS011;11117;48.644;9.006;2023-04-02T11:32:52;0.40;;;0.40;;
21905;SDS011;11117;48.644;9.006;2023-04-02T11:35:45;0.30;;;0.30;;
21905;SDS011;11117;48.644;9.006;2023-04-02T11:40:54;0.53;;;0.40;;
21905;SDS011;11117;48.644;9.006;2023-04-02T11:43:45;0.30;;;0.30;;
21905;SDS011;11117;48.644;9.006;2023-04-02T11:48:55;1.90;;;0.40;;
21905;SDS011;11117;48.644;9.006;2023-04-02T11:51:59;1.60;;;0.70;;
21905;SDS011;11117;48.644;9.006;2023-04-02T11:54:27;1.20;;;0.70;;
21905;SDS011;11117;48.644;9.006;2023-04-02T11:57:27;1.13;;;0.63;;
21905;SDS011;11117;48.644;9.006;2023-04-02T12:05:40;1.23;;;0.70;;
21905;SDS011;11117;48.644;9.006;2023-04-02T12:11:27;2.17;;;1.30;;
21905;SDS011;11117;48.644;9.006;2023-04-02T12:13:56;1.93;;;0.80;;
21905;SDS011;11117;48.644;9.006;2023-04-02T12:16:23;1.20;;;0.80;;
21905;SDS011;11117;48.644;9.006;2023-04-02T12:18:50;0.70;;;0.70;;
21905;SDS011;11117;48.644;9.006;2023-04-02T12:21:17;1.10;;;0.63;;
21905;SDS011;11117;48.644;9.006;2023-04-02T12:23:45;1.53;;;0.80;;
21905;SDS011;11117;48.644;9.006;2023-04-02T12:26:28;2.77;;;0.80;;
21905;SDS011;11117;48.644;9.006;2023-04-02T12:29:15;2.00;;;0.90;;
21905;SDS011;11117;48.644;9.006;2023-04-02T12:31:52;2.90;;;0.80;;
21905;SDS011;11117;48.644;9.006;2023-04-02T12:34:22;2.07;;;0.77;;
21905;SDS011;11117;48.644;9.006;2023-04-02T12:37:00;1.20;;;0.70;;
21905;SDS011;11117;48.644;9.006;2023-04-02T12:39:28;1.03;;;0.70;;
21905;SDS011;11117;48.644;9.006;2023-04-02T12:41:55;0.60;;;0.50;;
21905;SDS011;11117;48.644;9.006;2023-04-02T12:44:22;1.00;;;0.60;;
21905;SDS011;11117;48.644;9.006;2023-04-02T12:46:49;0.73;;;0.40;;
21905;SDS011;11117;48.644;9.006;2023-04-02T12:49:21;0.67;;;0.60;;
21905;SDS011;11117;48.644;9.006;2023-04-02T12:52:11;0.60;;;0.60;;
21905;SDS011;11117;48.644;9.006;2023-04-02T12:54:50;0.50;;;0.50;;
21905;SDS011;11117;48.644;9.006;2023-04-02T12:59:54;0.80;;;0.40;;
21905;SDS011;11117;48.644;9.006;2023-04-02T13:02:43;0.50;;;0.43;;
21905;SDS011;11117;48.644;9.006;2023-04-02T13:05:10;1.00;;;0.50;;
21905;SDS011;11117;48.644;9.006;2023-04-02T13:07:36;1.50;;;0.70;;
21905;SDS011;11117;48.644;9.006;2023-04-02T13:10:03;0.60;;;0.53;;
21905;SDS011;11117;48.644;9.006;2023-04-02T13:12:34;0.50;;;0.50;;
21905;SDS011;11117;48.644;9.006;2023-04-02T13:15:07;1.67;;;0.80;;
21905;SDS011;11117;48.644;9.006;2023-04-02T13:17:47;0.73;;;0.60;;
21905;SDS011;11117;48.644;9.006;2023-04-02T13:20:39;2.50;;;0.73;;
21905;SDS011;11117;48.644;9.006;2023-04-02T13:25:52;0.80;;;0.80;;
21905;SDS011;11117;48.644;9.006;2023-04-02T13:28:18;0.80;;;0.67;;
21905;SDS011;11117;48.644;9.006;2023-04-02T13:30:45;0.93;;;0.43;;
21905;SDS011;11117;48.644;9.006;2023-04-02T13:33:11;1.70;;;0.53;;
21905;SDS011;11117;48.644;9.006;2023-04-02T13:35:38;0.40;;;0.30;;
21905;SDS011;11117;48.644;9.006;2023-04-02T13:38:03;0.40;;;0.40;;
21905;SDS011;11117;48.644;9.006;2023-04-02T13:40:29;0.40;;;0.40;;
21905;SDS011;11117;48.644;9.006;2023-04-02T13:42:55;1.23;;;0.43;;
21905;SDS011;11117;48.644;9.006;2023-04-02T13:45:22;0.97;;;0.57;;
21905;SDS011;11117;48.644;9.006;2023-04-02T13:47:50;1.07;;;0.50;;
21905;SDS011;11117;48.644;9.006;2023-04-02T13:50:16;1.33;;;0.50;;
21905;SDS011;11117;48.644;9.006;2023-04-02T13:52:44;1.53;;;0.70;;
21905;SDS011;11117;48.644;9.006;2023-04-02T13:55:10;0.70;;;0.70;;
21905;SDS011;11117;48.644;9.006;2023-04-02T13:57:37;0.57;;;0.40;;
21905;SDS011;11117;48.644;9.006;2023-04-02T14:00:03;0.60;;;0.60;;
21905;SDS011;11117;48.644;9.006;2023-04-02T14:02:29;1.30;;;0.80;;
21905;SDS011;11117;48.644;9.006;2023-04-02T14:05:04;1.13;;;0.70;;
21905;SDS011;11117;48.644;9.006;2023-04-02T14:32:05;1.40;;;1.30;;
21905;SDS011;11117;48.644;9.006;2023-04-02T14:40:19;1.40;;;1.30;;
21905;SDS011;11117;48.644;9.006;2023-04-02T14:42:59;1.73;;;1.50;;
21905;SDS011;11117;48.644;9.006;2023-04-02T14:48:22;2.30;;;1.80;;
21905;SDS011;11117;48.644;9.006;2023-04-02T14:51:10;2.60;;;2.27;;
21905;SDS011;11117;48.644;9.006;2023-04-02T14:56:21;2.95;;;2.50;;
21905;SDS011;11117;48.644;9.006;2023-04-02T14:58:50;3.10;;;2.60;;
21905;SDS011;11117;48.644;9.006;2023-04-02T15:01:24;3.70;;;2.40;;
21905;SDS011;11117;48.644;9.006;2023-04-02T15:06:58;4.47;;;2.40;;
21905;SDS011;11117;48.644;9.006;2023-04-02T15:09:36;2.70;;;2.50;;
21905;SDS011;11117;48.644;9.006;2023-04-02T15:14:46;4.03;;;2.50;;
21905;SDS011;11117;48.644;9.006;2023-04-02T15:17:17;3.10;;;2.60;;
21905;SDS011;11117;48.644;9.006;2023-04-02T15:19:45;3.67;;;2.70;;
21905;SDS011;11117;48.644;9.006;2023-04-02T15:27:53;4.97;;;3.20;;
21905;SDS011;11117;48.644;9.006;2023-04-02T15:30:33;3.20;;;2.73;;
21905;SDS011;11117;48.644;9.006;2023-04-02T15:36:03;3.27;;;2.87;;
21905;SDS011;11117;48.644;9.006;2023-04-02T15:38:42;3.87;;;2.63;;
21905;SDS011;11117;48.644;9.006;2023-04-02T15:41:22;4.10;;;3.50;;
21905;SDS011;11117;48.644;9.006;2023-04-02T15:44:01;3.60;;;3.30;;
21905;SDS011;11117;48.644;9.006;2023-04-02T15:49:49;3.47;;;3.07;;
21905;SDS011;11117;48.644;9.006;2023-04-02T15:54:58;3.17;;;2.50;;
21905;SDS011;11117;48.644;9.006;2023-04-02T15:57:47;5.37;;;3.33;;
21905;SDS011;11117;48.644;9.006;2023-04-02T16:00:27;4.07;;;2.50;;
21905;SDS011;11117;48.644;9.006;2023-04-02T16:06:05;3.60;;;3.00;;
21905;SDS011;11117;48.644;9.006;2023-04-02T16:08:50;5.40;;;4.10;;
21905;SDS011;11117;48.644;9.006;2023-04-02T16:11:20;3.60;;;3.07;;
21905;SDS011;11117;48.644;9.006;2023-04-02T16:13:47;3.20;;;2.90;;
21905;SDS011;11117;48.644;9.006;2023-04-02T16:21:21;3.60;;;2.90;;
21905;SDS011;11117;48.644;9.006;2023-04-02T16:23:49;3.00;;;2.70;;
21905;SDS011;11117;48.644;9.006;2023-04-02T16:31:35;3.50;;;2.47;;
21905;SDS011;11117;48.644;9.006;2023-04-02T16:39:33;3.97;;;2.70;;
21905;SDS011;11117;48.644;9.006;2023-04-02T16:42:11;4.97;;;3.27;;
21905;SDS011;11117;48.644;9.006;2023-04-02T16:50:51;3.60;;;2.73;;
21905;SDS011;11117;48.644;9.006;2023-04-02T17:04:23;5.60;;;4.37;;
21905;SDS011;11117;48.644;9.006;2023-04-02T17:07:09;8.03;;;5.40;;
21905;SDS011;11117;48.644;9.006;2023-04-02T17:12:19;6.87;;;5.23;;
21905;SDS011;11117;48.644;9.006;2023-04-02T17:17:16;5.73;;;5.10;;
21905;SDS011;11117;48.644;9.006;2023-04-02T17:19:42;6.17;;;5.53;;
21905;SDS011;11117;48.644;9.006;2023-04-02T17:22:10;7.53;;;4.90;;
21905;SDS011;11117;48.644;9.006;2023-04-02T17:24:43;7.40;;;5.40;;
21905;SDS011;11117;48.644;9.006;2023-04-02T17:27:18;5.47;;;4.70;;
21905;SDS011;11117;48.644;9.006;2023-04-02T17:29:51;4.83;;;4.30;;
21905;SDS011;11117;48.644;9.006;2023-04-02T17:32:21;4.30;;;3.50;;
21905;SDS011;11117;48.644;9.006;2023-04-02T17:34:54;9.37;;;4.30;;
21905;SDS011;11117;48.644;9.006;2023-04-02T17:37:40;4.43;;;3.80;;
21905;SDS011;11117;48.644;9.006;2023-04-02T17:40:30;5.10;;;4.20;;
21905;SDS011;11117;48.644;9.006;2023-04-02T17:46:26;5.57;;;4.33;;
21905;SDS011;11117;48.644;9.006;2023-04-02T17:49:19;6.57;;;4.60;;
21905;SDS011;11117;48.644;9.006;2023-04-02T17:52:12;5.93;;;5.30;;
21905;SDS011;11117;48.644;9.006;2023-04-02T18:05:58;6.43;;;4.53;;
21905;SDS011;11117;48.644;9.006;2023-04-02T18:19:10;8.23;;;5.50;;
21905;SDS011;11117;48.644;9.006;2023-04-02T18:24:35;7.87;;;4.37;;
21905;SDS011;11117;48.644;9.006;2023-04-02T18:27:26;5.03;;;3.80;;
21905;SDS011;11117;48.644;9.006;2023-04-02T18:30:12;5.23;;;4.60;;
21905;SDS011;11117;48.644;9.006;2023-04-02T18:32:56;6.10;;;4.77;;
21905;SDS011;11117;48.644;9.006;2023-04-02T18:46:15;7.90;;;5.27;;
21905;SDS011;11117;48.644;9.006;2023-04-02T18:48:53;7.43;;;5.37;;
21905;SDS011;11117;48.644;9.006;2023-04-02T18:51:20;7.83;;;5.97;;
21905;SDS011;11117;48.644;9.006;2023-04-02T18:54:05;8.17;;;6.23;;
21905;SDS011;11117;48.644;9.006;2023-04-02T18:56:32;8.27;;;5.80;;
21905;SDS011;11117;48.644;9.006;2023-04-02T18:59:12;9.90;;;5.70;;
21905;SDS011;11117;48.644;9.006;2023-04-02T19:01:48;7.23;;;5.83;;
21905;SDS011;11117;48.644;9.006;2023-04-02T19:04:30;7.37;;;5.90;;
21905;SDS011;11117;48.644;9.006;2023-04-02T19:07:03;8.63;;;5.43;;
21905;SDS011;11117;48.644;9.006;2023-04-02T19:09:35;10.37;;;6.60;;
21905;SDS011;11117;48.644;9.006;2023-04-02T19:12:08;11.00;;;5.30;;
21905;SDS011;11117;48.644;9.006;2023-04-02T19:14:41;9.20;;;6.20;;
21905;SDS011;11117;48.644;9.006;2023-04-02T19:17:09;9.80;;;6.33;;
21905;SDS011;11117;48.644;9.006;2023-04-02T19:25:30;10.20;;;6.80;;
21905;SDS011;11117;48.644;9.006;2023-04-02T19:34:05;10.90;;;7.30;;
21905;SDS011;11117;48.644;9.006;2023-04-02T19:36:45;9.83;;;6.83;;
21905;SDS011;11117;48.644;9.006;2023-04-02T19:39:40;10.97;;;7.37;;
21905;SDS011;11117;48.644;9.006;2023-04-02T19:42:24;9.77;;;6.60;;
21905;SDS011;11117;48.644;9.006;2023-04-02T19:45:02;11.93;;;8.30;;
21905;SDS011;11117;48.644;9.006;2023-04-02T19:47:28;10.30;;;7.10;;
21905;SDS011;11117;48.644;9.006;2023-04-02T19:49:54;9.63;;;7.10;;
21905;SDS011;11117;48.644;9.006;2023-04-02T19:52:20;12.30;;;7.43;;
21905;SDS011;11117;48.644;9.006;2023-04-02T19:54:45;21.37;;;8.80;;
21905;SDS011;11117;48.644;9.006;2023-04-02T19:57:12;11.87;;;7.93;;
21905;SDS011;11117;48.644;9.006;2023-04-02T19:59:39;8.30;;;5.83;;
21905;SDS011;11117;48.644;9.006;2023-04-02T20:02:04;11.53;;;7.57;;
21905;SDS011;11117;48.644;9.006;2023-04-02T20:04:30;6.93;;;4.93;;
21905;SDS011;11117;48.644;9.006;2023-04-02T20:06:57;14.43;;;7.03;;
21905;SDS011;11117;48.644;9.006;2023-04-02T20:09:23;6.40;;;4.03;;
21905;SDS011;11117;48.644;9.006;2023-04-02T20:11:48;11.70;;;6.70;;
21905;SDS011;11117;48.644;9.006;2023-04-02T20:14:14;12.87;;;6.50;;
21905;SDS011;11117;48.644;9.006;2023-04-02T20:16:40;13.63;;;6.27;;